Terminal Aerodrome Forecast
Issued by NWS Charleston, WV

Current Version | Previous Version | Graphics & Text | Print | Product List | Glossary On
Versions: 1 2 3 4 5 6 7 8 9 10 11 12 13 14 15 16 17 18 19 20 21 22
444
FTUS41 KRLX 280526
TAFEKN
TAF
KEKN 280526Z 2806/2906 00000KT 5SM BR SCT100
     FM280800 00000KT 2SM BR BKN001
     FM281100 00000KT 4SM BR SCT150
     FM281200 21004KT P6SM SCT040=

USA.gov is the U.S. government's official web portal to all federal, state and local government web resources and services.